Meteo Giornale » Osservazioni meteo Italia » Cervia

ore: 07:55 - Osservazioni Meteo Cervia
Lat. 44° 13' N Lon. 12° 18' E Alt. 6 metri s.l.m.

sereno Europe/Rome

20 °C

Sereno

Temp. 24 Ore

16 °C

28 °C

Ovest/Nord-Ovest

11.1 Km/h

Dew point 16 °C

Umidità 77 %

Visibilità  10 Km

Il sole sorge alle ore 05:52

Il sole tramonta alle ore 20:42

Data e Ora Cielo e Fenomeni T °C DP °C Um. % Pres. hPa Vis. km Vento km/h
Oggi h: 07:55 sereno Sereno 20 16 77 1009 10 O/NO 11.1
Oggi h: 06:55 sereno Sereno 17 16 93 1008 10 N 3.7
Oggi h: 04:55 sereno Sereno 16 16 100 1007 10 N 5.5
Oggi h: 03:55 sereno Sereno 17 16 93 1007 10 N 0
Oggi h: 02:55 sereno Sereno 18 17 93 1007 10 N 0
Oggi h: 01:55 sereno Sereno 19 17 88 1007 10 N 3.7
Oggi h: 00:55 sereno Sereno 20 17 82 1006 10 N 3.7
Ieri h: 23:55 sereno Sereno 20 16 77 1006 10 N 3.7
Ieri h: 22:55 sereno Sereno 21 15 68 1006 10 N 5.5
Ieri h: 21:55 sereno Sereno 22 15 64 1005 10 N 3.7
Ieri h: 20:55 sereno Sereno 23 15 60 1005 10 S/SO 7.4
Ieri h: 19:55 sereno Sereno 26 16 54 1004 10 S/SO 7.4
Ieri h: 18:55 sereno Sereno 26 18 61 1004 10 S/SE 18.5
Ieri h: 17:55 poco_nuvoloso Poco Nuvoloso 26 19 65 1004 10 E/SE 22.2
Ieri h: 16:55 sereno Sereno 26 17 57 1004 10 SE 20.3
Ieri h: 15:55 poco_nuvoloso Poco Nuvoloso 28 18 54 1004 10 E 13
Ieri h: 14:55 sereno Sereno 27 17 54 1004 10 E 22.2
Ieri h: 13:55 sereno Sereno 28 15 45 1004 10 N 24
Ieri h: 12:55 sereno Sereno 27 14 44 1004 10 N 16.7
Ieri h: 11:55 sereno Sereno 26 15 50 1004 10 NO 25.9
Ieri h: 10:55 sereno Sereno 25 17 61 1004 10 NO 20.3
Ieri h: 09:55 sereno Sereno 23 16 64 1004 10 NO 20.3
Ieri h: 08:55 sereno Sereno 21 15 68 1004 10 O/NO 20.3